• Join FlightAware (Why Join?)
  • Login
  • US Flag 
05:31AM EST


 

Airport Tracker/Info


-or-


 

Live Flight TrackerFlight Track Log ✈ N9433D ✈ 16-May-2013 ✈ KSKY - KPHN

Flight Track Log - Related Links

Times and Time Zones

All times are in EDT time to prevent confusion due to time zone crossing. See the N9433D flight status page for this flight to view local times or setup timezone preferences in your user account.

Time Position Orientation Groundspeed Altitude Reporting Facility
EDT Latitude Longitude Course Direction KTS MPH feet Rate Location/Type
11:01AM 41.5139 -82.6603 359° North 93 107 4,000  Level Cleveland Center
11:02AM 41.5283 -82.6606 359° North 93 107 4,000 60 Level Cleveland Center
11:03AM 41.5533 -82.6558 North 91 105 4,100  Climbing Cleveland Center
11:04AM 41.5806 -82.6539 North 91 105 4,100  Level Cleveland Center
11:05AM 41.6056 -82.6519 North 95 109 4,100  Level Cleveland Center
11:05AM 41.6264 -82.6500 North 93 107 4,100  Level Cleveland Center
11:06AM 41.6536 -82.6453 North 93 107 4,100  Level Cleveland Center
11:07AM 41.6808 -82.6433 North 94 108 4,100 -60 Level Cleveland Center
11:08AM 41.7081 -82.6414 North 96 110 4,000 -60 Descending Cleveland Center
11:09AM 41.7331 -82.6367 North 94 108 4,000  Level Cleveland Center
11:10AM 41.7561 -82.6344 North 93 107 4,000  Level Cleveland Center
11:11AM 41.7811 -82.6297 North 93 107 4,100  Climbing Cleveland Center
11:12AM 41.8125 -82.6281 North 93 107 4,100  Level Cleveland Center
11:13AM 41.8397 -82.6261 North 93 107 4,100  Level Cleveland Center
11:14AM 41.8603 -82.6378 337° Northwest 95 109 4,100  Level Cleveland Center
11:15AM 41.8850 -82.6583 328° Northwest 92 106 4,100  Level Cleveland Center
11:16AM 41.9033 -82.6728 330° Northwest 94 108 4,100  Level Cleveland Center
11:18AM 41.9325 -82.6739 358° North 104 120 4,100  Level Cleveland Center
11:19AM 41.9575 -82.6717 North 93 107 4,100  Level Cleveland Center
11:19AM 41.9847 -82.6700 North 97 112 4,100  Level Cleveland Center
11:20AM 42.0119 -82.6653 North 98 113 4,100  Level Cleveland Center
11:21AM 42.0369 -82.6603 North 95 109 4,100  Level Cleveland Center
11:23AM 42.0642 -82.6583 North 94 108 4,100  Level Cleveland Center
11:24AM 42.0914 -82.6539 North 91 105 4,100  Level Cleveland Center
11:25AM 42.1206 -82.6492 North 98 113 4,100  Level Cleveland Center
11:26AM 42.1478 -82.6472 North 95 109 4,100  Level Cleveland Center
11:27AM 42.1728 -82.6397 13° North 96 110 4,100  Level Cleveland Center
11:28AM 42.2000 -82.6378 North 94 108 4,100  Level Cleveland Center
11:29AM 42.2250 -82.6328 North 96 110 4,100  Level Cleveland Center
11:31AM 42.2753 -82.6242 North  Level FlightAware Approximate
11:38AM 42.4693 -82.5925 North  Level FlightAware Approximate
11:39AM 42.4971 -82.5886 North  Level FlightAware Approximate
11:40AM 42.5248 -82.5846 North  Level FlightAware Approximate
11:41AM 42.5525 -82.5807 North  Level FlightAware Approximate
11:42AM 42.5803 -82.5767 North  Level FlightAware Approximate
11:43AM 42.6080 -82.5727 North  Level FlightAware Approximate
11:44AM 42.6357 -82.5688 North  Level FlightAware Approximate
11:45AM 42.6635 -82.5648 North  Level FlightAware Approximate
11:46AM 42.6912 -82.5608 North  Level FlightAware Approximate
11:47AM 42.7189 -82.5568 North  Level FlightAware Approximate
11:48AM 42.7467 -82.5529 North  Level FlightAware Approximate
11:49AM 42.7743 -82.5481 10° North  Level FlightAware Approximate
11:50AM 42.8018 -82.5412 10° North  Level FlightAware Approximate
11:51AM 42.8292 -82.5344 10° North  Level FlightAware Approximate
11:52AM 42.8566 -82.5275 10° North  Level FlightAware Approximate
11:53AM 42.8840 -82.5207 10° North  Level FlightAware Approximate